Riviera Beach, FL (33404)

7:59 AM EDT on August 26, 2016 (GMT -0400)
Singer Island | | Change Station

Elev 23 ft 26.79 °N, 80.04 °W | Updated 13 minutes ago

Mostly Cloudy
Mostly Cloudy
82.5 °F
Feels Like 92 °F
N
4.3
Wind Variable Wind from North

Today
High -- | Low -- °F
--% Chance of Precip.
Yesterday
High -- | Low -- °F
Precip. -- in
Pressure 29.98 in
Visibility 10.0 miles
Clouds Scattered Clouds 2200 ft
Scattered Clouds 8500 ft
Mostly Cloudy 25000 ft
Heat Index 92 °F
Dew Point 78 °F
Humidity 87%
Rainfall Not available.
Snow Depth Not available.
6:57 AM 7:46 PM
Waning Crescent, 35% visible
METAR KPBI 261153Z 26003KT 10SM SCT022 SCT085 BKN250 28/25 A2998 RMK AO2 SLP150 CB DSNT NW-NE TCU DSNT SE-SW 70057 T02780250 10289 20267 52011 $
Pressure 29.98 in
Visibility 10.0 miles
Clouds Scattered Clouds 2200 ft
Scattered Clouds 8500 ft
Mostly Cloudy 25000 ft
Heat Index 92 °F
Dew Point 78 °F
Humidity 87%
Rainfall Not available.
Snow Depth Not available.
6:57 AM 7:46 PM
Waning Crescent, 35% visible
METAR KPBI 261153Z 26003KT 10SM SCT022 SCT085 BKN250 28/25 A2998 RMK AO2 SLP150 CB DSNT NW-NE TCU DSNT SE-SW 70057 T02780250 10289 20267 52011 $

10-Day Weather Forecast

Almanac

Astronomy

Aug. 26, 2016 Rise Set
Actual Time
Civil Twilight
Nautical Twilight
Astronomical Twilight
Moon
Length of Visible Light
Length of Day
Tomorrow will be .
, % of the Moon is Illuminated

Today's Extremes

State Highs State Lows

Community

WunderPhotos

Upload Photos

1,935,071 photos uploaded!

WunderBlog® & News

Nearby

Air Quality

  Air Quality AQ Index Pollutant
Not available.

Snow Depth

Station Depth Elevation

Earthquake Activity

City Distance Mag. Time & Date
Minimum magnitude displayed is 2.5.

Coastal Water Temperatures

Place Temperature

Stations

Nearby Weather Stations

Station Location Temp. Windchill Dew Point Humidity Wind Precip. Elev Updated Type
                   

Watches & Warnings

There are currently no watches in effect.